Time;durP1;ratioP1;P1;durP2;ratioP2;P2;SDS_P1;SDS_P2;PMS_P1;PMS_P2;Temp;Humidity;BMP_temperature;BMP_pressure;BME280_temperature;BME280_humidity;BME280_pressure;Samples;Min_cycle;Max_cycle;Signal;HPM_P1;HPM_P2
2022/02/25 00:01:21;;;;;;;2.37;0.57;;;7.70;54.50;;;;;;2292785;56;20979;-68
2022/02/25 00:03:48;;;;;;;1.62;0.40;;;7.70;54.50;;;;;;2284823;55;21009;-70
2022/02/25 00:06:15;;;;;;;2.00;0.60;;;7.70;54.60;;;;;;2288651;56;20978;-68
2022/02/25 00:08:56;;;;;;;1.58;0.55;;;7.70;54.60;;;;;;2269458;56;20954;-68
2022/02/25 00:11:29;;;;;;;0.93;0.45;;;7.80;54.90;;;;;;2364309;55;20984;-69
2022/02/25 00:13:55;;;;;;;;;;;7.70;54.70;;;;;;2324615;55;20984;-68
2022/02/25 00:16:22;;;;;;;0.32;0.30;;;7.70;54.70;;;;;;2370262;55;20180;-68
2022/02/25 00:18:48;;;;;;;0.88;0.35;;;7.70;54.50;;;;;;2289622;56;21018;-68
2022/02/25 00:21:29;;;;;;;0.20;0.20;;;7.70;54.70;;;;;;2289371;56;21011;-69
2022/02/25 00:23:56;;;;;;;2.12;0.40;;;7.70;55.60;;;;;;2289257;56;20964;-68
2022/02/25 00:26:23;;;;;;;1.00;0.40;;;7.70;54.80;;;;;;2524034;55;21843;-68
2022/02/25 00:28:49;;;;;;;0.43;0.30;;;7.70;54.80;;;;;;2287957;56;20984;-68
2022/02/25 00:31:16;;;;;;;1.02;0.43;;;7.60;54.80;;;;;;2349426;55;21552;-70
2022/02/25 00:33:54;;;;;;;1.98;0.30;;;7.70;55.00;;;;;;2291475;56;20996;-69
2022/02/25 00:36:21;;;;;;;0.95;0.40;;;7.60;55.20;;;;;;2323922;54;21054;-69
2022/02/25 00:39:01;;;;;;;0.75;0.37;;;7.60;55.20;;;;;;2289492;55;21898;-69
2022/02/25 00:41:27;;;;;;;0.90;0.40;;;7.60;55.40;;;;;;2463982;55;21016;-69
2022/02/25 00:43:53;;;;;;;1.30;0.50;;;7.60;55.30;;;;;;2288967;56;21466;-69
2022/02/25 00:46:20;;;;;;;1.65;0.50;;;7.60;55.50;;;;;;2520935;54;20994;-69
2022/02/25 00:48:49;;;;;;;1.83;0.60;;;7.60;55.60;;;;;;2287099;55;21012;-69
2022/02/25 00:51:19;;;;;;;2.25;0.80;;;7.60;55.60;;;;;;2267499;56;20981;-68
2022/02/25 00:53:45;;;;;;;2.58;0.60;;;7.60;55.70;;;;;;2286145;55;20979;-69
2022/02/25 00:56:12;;;;;;;2.58;0.68;;;7.60;55.70;;;;;;2326574;55;21366;-69
2022/02/25 00:58:38;;;;;;;1.15;0.50;;;7.60;55.60;;;;;;2288734;56;20961;-68
2022/02/25 01:01:08;;;;;;;2.15;0.62;;;7.60;55.50;;;;;;2353088;55;21421;-70
2022/02/25 01:03:42;;;;;;;1.45;0.50;;;7.60;55.40;;;;;;2289557;56;20976;-70
2022/02/25 01:06:10;;;;;;;0.60;0.35;;;7.50;55.40;;;;;;2300642;55;21018;-68
2022/02/25 01:08:36;;;;;;;2.67;0.55;;;7.50;55.30;;;;;;2287722;54;21053;-68
2022/02/25 01:11:03;;;;;;;0.85;0.40;;;7.40;55.60;;;;;;2405119;55;21040;-68
2022/02/25 01:13:31;;;;;;;1.25;0.40;;;7.40;55.20;;;;;;2288745;56;21380;-69
2022/02/25 01:15:59;;;;;;;1.25;0.50;;;7.30;55.00;;;;;;2375733;54;21008;-69
2022/02/25 01:18:25;;;;;;;1.37;0.50;;;7.30;55.00;;;;;;2288677;56;20944;-69
2022/02/25 01:20:55;;;;;;;1.23;0.47;;;7.10;54.90;;;;;;2523927;54;21017;-68
2022/02/25 01:23:23;;;;;;;2.55;0.50;;;7.10;55.00;;;;;;2288817;56;20958;-69
2022/02/25 01:25:50;;;;;;;2.12;0.60;;;7.00;54.90;;;;;;2288360;56;20988;-69
2022/02/25 01:28:16;;;;;;;2.30;0.52;;;6.90;54.90;;;;;;2288545;56;20972;-69
2022/02/25 01:30:43;;;;;;;1.70;0.43;;;6.80;54.80;;;;;;2523983;55;21335;-68
2022/02/25 01:36:35;;;;;;;1.65;0.60;;;6.70;55.20;;;;;;2519833;54;20984;-69
2022/02/25 01:39:02;;;;;;;1.08;0.40;;;6.60;55.00;;;;;;2291262;56;21002;-69
2022/02/25 01:41:31;;;;;;;3.17;0.50;;;6.50;55.10;;;;;;2282385;54;21015;-69
2022/02/25 01:44:15;;;;;;;1.42;0.50;;;6.50;55.20;;;;;;2289061;56;20949;-68
2022/02/25 01:46:46;;;;;;;3.83;0.70;;;6.40;55.30;;;;;;2285714;56;21004;-68
2022/02/25 01:49:13;;;;;;;2.08;0.40;;;6.30;55.20;;;;;;2292817;55;21783;-68
2022/02/25 01:51:43;;;;;;;2.55;0.60;;;6.20;55.10;;;;;;2289363;56;20992;-68
2022/02/25 01:54:10;;;;;;;2.40;0.50;;;6.10;55.20;;;;;;2410415;54;20938;-69
2022/02/25 01:56:47;;;;;;;1.55;0.50;;;6.10;55.30;;;;;;2287951;55;20933;-68
2022/02/25 01:59:27;;;;;;;1.87;0.40;;;6.00;55.40;;;;;;2294186;55;21549;-70
2022/02/25 02:01:53;;;;;;;1.25;0.50;;;5.90;55.50;;;;;;2291081;56;21008;-69
2022/02/25 02:04:21;;;;;;;2.25;0.40;;;5.90;55.40;;;;;;2284814;55;21501;-68
2022/02/25 02:06:58;;;;;;;1.73;0.32;;;5.80;55.50;;;;;;2288472;55;21963;-68
2022/02/25 02:09:26;;;;;;;1.48;0.43;;;5.80;55.60;;;;;;2373930;55;20956;-68
2022/02/25 02:11:53;;;;;;;1.20;0.40;;;5.70;55.70;;;;;;2295110;55;20957;-68
2022/02/25 02:14:47;;;;;;;1.85;0.52;;;5.70;55.70;;;;;;2383570;55;20958;-68
2022/02/25 02:17:21;;;;;;;1.95;0.40;;;5.60;55.90;;;;;;2295451;55;20949;-68
2022/02/25 02:19:50;;;;;;;0.88;0.40;;;5.60;55.80;;;;;;2323631;55;20961;-69
2022/02/25 02:22:25;;;;;;;1.30;0.40;;;5.50;55.80;;;;;;2289655;56;21044;-68
2022/02/25 02:24:52;;;;;;;1.00;0.45;;;5.50;55.90;;;;;;2266139;56;21626;-68
2022/02/25 02:27:18;;;;;;;1.62;0.57;;;5.40;55.90;;;;;;2289768;56;20984;-69
2022/02/25 02:29:45;;;;;;;1.80;0.45;;;5.40;55.90;;;;;;2351439;55;20961;-68
2022/02/25 02:32:11;;;;;;;2.62;0.50;;;5.40;56.00;;;;;;2291519;55;21536;-68
2022/02/25 02:34:38;;;;;;;1.33;0.50;;;5.40;56.00;;;;;;2286249;54;20980;-68
2022/02/25 02:37:10;;;;;;;2.58;0.82;;;5.30;56.10;;;;;;2455580;55;21615;-68
2022/02/25 02:39:37;;;;;;;;;;;5.30;56.20;;;;;;2472738;54;21371;-68
2022/02/25 02:42:05;;;;;;;2.72;0.60;;;5.20;56.90;;;;;;2289601;56;20073;-69
2022/02/25 02:44:31;;;;;;;1.65;0.50;;;5.20;56.00;;;;;;2294591;55;21541;-70
2022/02/25 02:46:59;;;;;;;1.75;0.50;;;5.20;56.10;;;;;;2289674;56;21022;-69
2022/02/25 02:49:26;;;;;;;2.42;0.57;;;5.10;56.00;;;;;;2289425;55;20964;-69
2022/02/25 02:51:52;;;;;;;1.70;0.70;;;5.10;56.20;;;;;;2289405;56;20972;-68
2022/02/25 02:54:18;;;;;;;5.05;0.90;;;5.10;56.30;;;;;;2305854;55;21009;-68
2022/02/25 02:56:47;;;;;;;3.12;0.80;;;5.10;56.30;;;;;;2289831;56;21488;-68
2022/02/25 02:59:18;;;;;;;2.33;0.90;;;5.00;56.30;;;;;;2292674;55;21433;-69
2022/02/25 03:01:44;;;;;;;3.05;0.90;;;5.00;56.40;;;;;;2289291;56;20952;-68
2022/02/25 03:04:12;;;;;;;5.72;0.90;;;5.00;56.40;;;;;;2331547;55;20941;-68
2022/02/25 03:06:38;;;;;;;2.35;0.60;;;5.00;56.50;;;;;;2523851;54;20952;-69
2022/02/25 03:09:05;;;;;;;3.03;0.77;;;4.90;56.50;;;;;;2289562;56;21434;-69
2022/02/25 03:11:32;;;;;;;2.95;0.68;;;4.90;56.60;;;;;;2289514;56;21005;-68
2022/02/25 03:13:58;;;;;;;3.15;0.77;;;4.90;56.60;;;;;;2324829;55;20932;-68
2022/02/25 03:16:25;;;;;;;2.83;0.88;;;4.90;56.70;;;;;;2289706;56;20952;-69
2022/02/25 03:18:51;;;;;;;7.12;0.90;;;4.90;56.70;;;;;;2337840;55;20925;-68
2022/02/25 03:21:20;;;;;;;4.12;0.90;;;4.90;56.70;;;;;;2289026;56;20961;-68
2022/02/25 03:23:46;;;;;;;2.10;0.90;;;4.90;56.80;;;;;;2291702;55;21644;-68
2022/02/25 03:26:14;;;;;;;3.90;1.20;;;4.90;56.70;;;;;;2443310;54;20960;-69
2022/02/25 03:28:40;;;;;;;2.85;0.90;;;4.90;56.70;;;;;;2289841;56;20936;-69
2022/02/25 03:31:06;;;;;;;4.75;0.80;;;4.90;56.80;;;;;;2361439;55;1331880;-69
2022/02/25 03:33:32;;;;;;;3.40;0.90;;;4.90;56.90;;;;;;2288796;54;20973;-68
2022/02/25 03:35:59;;;;;;;4.40;0.75;;;4.90;56.90;;;;;;2284878;55;21490;-68
2022/02/25 03:38:27;;;;;;;3.50;1.00;;;4.90;57.10;;;;;;2332382;54;21036;-70
2022/02/25 03:40:53;;;;;;;2.42;0.80;;;4.90;57.10;;;;;;2343041;55;20940;-69
2022/02/25 03:43:20;;;;;;;6.45;1.00;;;4.90;57.10;;;;;;2289122;56;21450;-69
2022/02/25 03:45:50;;;;;;;1.83;0.70;;;4.90;57.10;;;;;;2289073;56;20973;-68
2022/02/25 03:48:18;;;;;;;5.30;1.00;;;4.90;57.10;;;;;;2289412;56;20920;-68
2022/02/25 03:50:45;;;;;;;3.97;0.80;;;4.90;57.10;;;;;;2287750;55;21853;-68
2022/02/25 03:53:12;;;;;;;3.95;0.80;;;5.00;57.10;;;;;;2288959;55;20952;-68
2022/02/25 03:55:39;;;;;;;3.85;0.88;;;5.00;57.20;;;;;;2289496;56;20972;-68
2022/02/25 03:58:05;;;;;;;6.00;0.85;;;5.00;57.20;;;;;;2524010;55;20945;-68
2022/02/25 04:00:31;;;;;;;3.85;0.80;;;5.00;57.20;;;;;;2288957;56;20964;-68
2022/02/25 04:02:58;;;;;;;3.30;0.70;;;5.10;57.30;;;;;;2289390;56;21482;-69
2022/02/25 04:05:24;;;;;;;2.25;0.80;;;5.10;57.30;;;;;;2289389;56;21000;-70
2022/02/25 04:07:52;;;;;;;4.40;0.80;;;5.10;57.30;;;;;;2289719;56;20944;-70
2022/02/25 04:10:20;;;;;;;4.55;0.65;;;5.10;57.20;;;;;;2291115;55;20985;-69
2022/02/25 04:12:48;;;;;;;2.37;0.80;;;5.10;57.20;;;;;;2287112;55;20952;-69
2022/02/25 04:15:16;;;;;;;4.10;0.80;;;5.20;57.30;;;;;;2291854;55;21056;-69
2022/02/25 04:17:43;;;;;;;2.67;0.80;;;5.20;57.20;;;;;;2284748;55;21092;-68
2022/02/25 04:20:11;;;;;;;3.33;0.73;;;5.20;57.20;;;;;;2288382;56;21339;-69
2022/02/25 04:22:40;;;;;;;2.87;0.60;;;5.20;57.10;;;;;;2289432;56;20961;-69
2022/02/25 04:25:07;;;;;;;2.72;0.60;;;5.20;57.00;;;;;;2291315;56;21773;-69
2022/02/25 04:27:34;;;;;;;2.62;0.70;;;5.20;57.00;;;;;;2289401;56;21048;-69
2022/02/25 04:30:01;;;;;;;7.85;0.98;;;5.20;57.00;;;;;;2288877;56;21464;-68
2022/02/25 04:32:27;;;;;;;2.42;0.80;;;5.10;56.90;;;;;;2288926;56;20984;-69
2022/02/25 04:34:55;;;;;;;2.37;0.70;;;5.10;56.90;;;;;;2287908;56;20988;-69
2022/02/25 04:37:22;;;;;;;3.30;0.90;;;5.20;57.00;;;;;;2289289;55;21001;-70
2022/02/25 04:39:48;;;;;;;2.17;0.80;;;5.10;56.90;;;;;;2288759;55;21645;-69
2022/02/25 04:42:15;;;;;;;7.15;1.00;;;5.10;56.90;;;;;;2272039;54;21025;-68
2022/02/25 04:44:41;;;;;;;4.62;0.82;;;5.10;56.90;;;;;;2288571;55;20983;-70
2022/02/25 04:47:08;;;;;;;2.75;0.85;;;5.20;57.00;;;;;;2429821;54;21529;-70
2022/02/25 04:49:36;;;;;;;4.03;0.77;;;5.20;57.10;;;;;;2289715;56;20989;-69
2022/02/25 04:52:03;;;;;;;3.75;0.80;;;5.20;57.10;;;;;;2290495;55;20988;-68
2022/02/25 04:54:29;;;;;;;3.50;0.75;;;5.20;57.10;;;;;;2289696;56;21012;-68
2022/02/25 04:56:55;;;;;;;3.95;1.00;;;5.10;56.90;;;;;;2290805;55;20945;-69
2022/02/25 04:59:31;;;;;;;2.80;0.77;;;5.20;57.00;;;;;;2290056;56;20981;-70
2022/02/25 05:01:57;;;;;;;1.58;0.73;;;5.20;56.90;;;;;;2292227;55;20958;-69
2022/02/25 05:04:23;;;;;;;2.45;0.60;;;5.10;56.80;;;;;;2271928;54;21422;-69
2022/02/25 05:06:49;;;;;;;2.87;0.77;;;5.20;56.80;;;;;;2292799;55;20984;-69
2022/02/25 05:09:16;;;;;;;6.70;1.87;;;5.10;56.70;;;;;;2281106;55;21582;-68
2022/02/25 05:11:42;;;;;;;6.35;2.20;;;5.10;56.70;;;;;;2355295;54;21502;-68
2022/02/25 05:20:15;;;;;;;9.55;3.03;;;5.10;56.70;;;;;;2289566;56;20973;-69
2022/02/25 05:22:44;;;;;;;4.25;1.98;;;5.10;56.70;;;;;;2288564;56;20957;-68
2022/02/25 05:25:11;;;;;;;4.45;1.70;;;5.00;56.30;;;;;;2420217;55;21000;-69
2022/02/25 05:27:38;;;;;;;5.15;1.20;;;5.00;56.40;;;;;;2285881;55;20960;-69
2022/02/25 05:30:07;;;;;;;2.85;0.90;;;4.90;56.40;;;;;;2288170;55;21437;-69
2022/02/25 05:32:33;;;;;;;5.15;1.10;;;4.90;56.50;;;;;;2523566;55;20996;-69
2022/02/25 05:34:59;;;;;;;2.47;0.70;;;4.80;56.40;;;;;;2288980;56;21020;-69
2022/02/25 05:37:26;;;;;;;3.25;0.90;;;4.80;56.40;;;;;;2288769;56;20960;-67
2022/02/25 05:39:52;;;;;;;5.80;0.80;;;4.80;56.40;;;;;;2475811;54;21911;-68
2022/02/25 05:42:28;;;;;;;2.62;0.88;;;4.70;56.40;;;;;;2285234;55;21000;-70
2022/02/25 05:45:08;;;;;;;3.60;0.75;;;4.70;56.50;;;;;;2289111;56;21064;-69
2022/02/25 05:47:35;;;;;;;3.87;1.15;;;4.60;56.40;;;;;;2290063;55;20996;-68
2022/02/25 05:50:03;;;;;;;3.58;0.95;;;4.60;56.40;;;;;;2289417;55;20972;-69
2022/02/25 05:53:15;;;;;;;3.85;0.98;;;4.50;56.30;;;;;;2288258;56;21049;-69
2022/02/25 05:55:42;;;;;;;4.60;1.00;;;4.50;56.50;;;;;;2290177;56;21076;-68
2022/02/25 06:01:39;;;;;;;1.90;0.70;;;4.40;56.40;;;;;;2289591;55;20977;-68
2022/02/25 06:04:05;;;;;;;3.75;0.90;;;4.40;56.30;;;;;;2395706;55;20953;-68
2022/02/25 06:06:32;;;;;;;5.37;0.90;;;4.30;56.30;;;;;;2501129;54;20960;-68
2022/02/25 06:08:59;;;;;;;3.17;0.93;;;4.30;56.40;;;;;;2304033;55;20984;-68
2022/02/25 06:11:29;;;;;;;3.28;0.70;;;4.20;56.40;;;;;;2507813;54;20953;-69
2022/02/25 06:13:57;;;;;;;2.90;0.82;;;4.20;56.50;;;;;;2288505;56;21501;-68
2022/02/25 06:16:29;;;;;;;4.10;0.90;;;4.20;56.50;;;;;;2288659;56;21067;-69
2022/02/25 06:18:56;;;;;;;3.17;1.00;;;4.20;56.70;;;;;;2341214;55;20949;-69
2022/02/25 06:21:28;;;;;;;3.20;0.93;;;4.20;56.80;;;;;;2280708;55;20990;-67
2022/02/25 06:23:55;;;;;;;4.22;1.00;;;4.10;56.90;;;;;;2276185;54;20969;-69
2022/02/25 06:26:22;;;;;;;5.35;1.00;;;4.20;57.00;;;;;;2289150;55;21088;-68
2022/02/25 06:28:52;;;;;;;2.72;0.75;;;4.20;57.10;;;;;;2289376;56;21797;-68
2022/02/25 06:31:19;;;;;;;3.95;0.93;;;4.20;57.20;;;;;;2401959;55;21001;-69
2022/02/25 06:33:45;;;;;;;3.05;0.90;;;4.20;57.20;;;;;;2289375;56;20977;-68
2022/02/25 06:39:34;;;;;;;1.52;0.68;;;4.30;57.50;;;;;;2289751;55;21003;-68
2022/02/25 06:42:06;;;;;;;2.72;0.80;;;4.30;57.30;;;;;;2272647;54;21818;-69
2022/02/25 06:44:32;;;;;;;3.57;0.77;;;4.40;57.40;;;;;;2284908;55;21088;-71
2022/02/25 06:46:59;;;;;;;2.50;0.68;;;4.40;57.40;;;;;;2274130;55;21020;-69
2022/02/25 06:49:25;;;;;;;2.65;0.70;;;4.40;57.40;;;;;;2289527;56;21012;-68
2022/02/25 06:51:57;;;;;;;5.82;1.10;;;4.50;57.50;;;;;;2289449;56;21050;-68
2022/02/25 06:54:23;;;;;;;5.60;0.90;;;4.50;57.50;;;;;;2287436;55;20964;-69
2022/02/25 06:56:51;;;;;;;8.68;1.70;;;4.50;57.50;;;;;;2288731;56;20969;-70
2022/02/25 06:59:23;;;;;;;17.92;4.47;;;4.60;57.50;;;;;;2289725;56;21000;-68
2022/02/25 07:01:50;;;;;;;;;;;4.60;57.50;;;;;;2269835;56;22004;-69
2022/02/25 07:04:59;;;;;;;10.00;2.70;;;4.60;57.50;;;;;;2314866;55;20802;-69
2022/02/25 07:07:25;;;;;;;8.27;1.90;;;4.70;57.50;;;;;;2289209;56;20964;-68
2022/02/25 07:09:52;;;;;;;6.90;1.60;;;4.70;57.50;;;;;;2288700;56;21012;-70
2022/02/25 07:12:19;;;;;;;6.00;1.12;;;4.70;57.70;;;;;;2289023;56;21029;-70
2022/02/25 07:14:45;;;;;;;4.82;1.10;;;4.80;57.80;;;;;;2288440;55;21724;-69
2022/02/25 07:17:12;;;;;;;4.18;0.90;;;4.80;57.80;;;;;;2288073;55;20980;-70
2022/02/25 07:19:38;;;;;;;4.62;0.90;;;4.90;57.90;;;;;;2289266;56;20944;-70
2022/02/25 07:22:07;;;;;;;4.25;0.85;;;5.00;58.00;;;;;;2291980;56;21017;-70
2022/02/25 07:24:33;;;;;;;4.95;1.10;;;5.10;58.10;;;;;;2284695;55;21766;-70
2022/02/25 07:27:00;;;;;;;3.35;0.85;;;5.20;58.20;;;;;;2288187;56;20940;-69
2022/02/25 07:29:26;;;;;;;3.75;1.10;;;5.20;58.30;;;;;;2289341;56;21425;-69
2022/02/25 07:31:53;;;;;;;9.23;2.42;;;5.30;58.40;;;;;;2289434;54;20950;-68
2022/02/25 07:34:22;;;;;;;28.35;8.70;;;5.40;58.40;;;;;;2286800;54;21008;-69
2022/02/25 07:36:48;;;;;;;14.95;5.75;;;5.60;58.50;;;;;;2289418;56;21684;-68
2022/02/25 07:39:16;;;;;;;14.73;4.68;;;5.70;58.60;;;;;;2289538;56;20929;-70
2022/02/25 07:41:42;;;;;;;14.50;5.05;;;5.80;58.70;;;;;;2288828;56;20989;-70
2022/02/25 07:44:09;;;;;;;14.38;4.65;;;5.90;58.70;;;;;;2289247;56;20957;-69
2022/02/25 07:46:35;;;;;;;17.50;8.07;;;6.00;58.70;;;;;;2343467;55;21781;-68
2022/02/25 07:49:18;;;;;;;9.63;3.85;;;6.10;58.60;;;;;;2338185;55;20939;-69
2022/02/25 07:51:50;;;;;;;6.40;3.05;;;6.20;58.60;;;;;;2289274;55;20944;-70
2022/02/25 07:54:18;;;;;;;6.40;2.25;;;6.30;58.40;;;;;;2519572;54;21011;-70
2022/02/25 07:56:45;;;;;;;5.57;2.20;;;6.40;58.20;;;;;;2334672;54;20921;-69
2022/02/25 07:59:14;;;;;;;3.60;1.23;;;6.50;58.10;;;;;;2289402;56;20973;-69
2022/02/25 08:01:43;;;;;;;3.93;1.20;;;6.50;57.80;;;;;;2291828;54;21069;-68
2022/02/25 08:04:10;;;;;;;4.55;1.10;;;6.60;57.70;;;;;;2286580;55;21199;-69
2022/02/25 08:06:36;;;;;;;5.82;1.00;;;6.60;57.60;;;;;;2367917;55;20980;-69
2022/02/25 08:09:03;;;;;;;3.55;1.02;;;6.70;57.70;;;;;;2289233;56;21015;-69
2022/02/25 08:11:29;;;;;;;5.35;1.02;;;6.70;57.50;;;;;;2289204;56;21465;-69
2022/02/25 08:14:00;;;;;;;4.62;1.40;;;6.80;57.40;;;;;;2289238;56;20955;-69
2022/02/25 08:16:29;;;;;;;5.75;1.35;;;6.80;57.40;;;;;;2289461;56;20929;-69
2022/02/25 08:18:56;;;;;;;6.03;1.08;;;6.80;57.50;;;;;;2289295;56;20932;-69
2022/02/25 08:21:22;;;;;;;6.22;1.40;;;6.90;57.80;;;;;;2477097;54;20992;-70
2022/02/25 08:23:49;;;;;;;3.67;1.00;;;7.00;58.00;;;;;;2289383;56;20909;-69
2022/02/25 08:26:15;;;;;;;6.55;1.10;;;7.10;57.90;;;;;;2289761;56;20933;-69
2022/02/25 08:28:45;;;;;;;8.48;1.10;;;7.20;58.00;;;;;;2289885;55;21028;-70
2022/02/25 08:31:12;;;;;;;3.35;1.15;;;7.40;57.90;;;;;;2289250;56;21032;-69
2022/02/25 08:33:41;;;;;;;3.55;0.90;;;7.50;57.70;;;;;;2289596;56;20957;-70
2022/02/25 08:36:08;;;;;;;5.97;1.10;;;7.60;57.50;;;;;;2409421;55;21609;-69
2022/02/25 08:38:34;;;;;;;3.45;0.93;;;7.70;57.50;;;;;;2288926;56;20944;-71
2022/02/25 08:41:03;;;;;;;5.12;0.88;;;7.80;57.10;;;;;;2514887;54;20937;-70
2022/02/25 08:43:32;;;;;;;2.97;0.90;;;7.90;57.10;;;;;;2274280;55;21445;-69
2022/02/25 08:46:06;;;;;;;6.05;1.30;;;7.90;57.00;;;;;;2310658;55;20936;-69
2022/02/25 08:48:32;;;;;;;6.53;1.17;;;8.10;56.90;;;;;;2292905;55;20972;-69
2022/02/25 08:50:59;;;;;;;5.25;1.30;;;8.20;56.90;;;;;;2310325;55;21079;-70
2022/02/25 08:53:25;;;;;;;3.00;1.00;;;8.30;57.30;;;;;;2288924;56;20989;-71
2022/02/25 08:55:51;;;;;;;3.62;1.42;;;8.40;57.50;;;;;;2423808;54;21760;-70
2022/02/25 08:58:20;;;;;;;4.82;1.30;;;8.50;57.40;;;;;;2289068;56;21009;-69
2022/02/25 09:00:46;;;;;;;3.78;1.52;;;8.70;57.40;;;;;;2348610;54;21265;-70
2022/02/25 09:03:13;;;;;;;6.32;1.62;;;8.80;57.20;;;;;;2289040;56;20997;-70
2022/02/25 09:05:42;;;;;;;5.65;1.60;;;8.80;56.50;;;;;;2342547;55;20957;-71
2022/02/25 09:08:08;;;;;;;3.72;1.10;;;8.90;56.50;;;;;;2288397;55;20932;-71
2022/02/25 09:10:34;;;;;;;4.03;1.50;;;9.10;57.00;;;;;;2414979;55;20956;-70
2022/02/25 09:13:01;;;;;;;7.70;1.50;;;9.20;57.30;;;;;;2282062;55;21025;-71
2022/02/25 09:15:27;;;;;;;5.65;1.15;;;9.40;57.20;;;;;;2423922;54;21013;-70
2022/02/25 09:17:56;;;;;;;6.25;1.60;;;9.60;57.10;;;;;;2288475;55;20958;-71
2022/02/25 09:20:25;;;;;;;5.05;1.50;;;9.80;56.40;;;;;;2376722;55;20956;-71
2022/02/25 09:22:52;;;;;;;5.00;1.65;;;9.90;56.00;;;;;;2288888;56;21364;-71
2022/02/25 09:25:21;;;;;;;5.43;1.50;;;10.00;55.70;;;;;;2331046;54;21060;-70
2022/02/25 09:27:48;;;;;;;5.32;1.52;;;10.10;54.70;;;;;;2288833;56;21057;-71
2022/02/25 09:30:15;;;;;;;4.22;1.77;;;10.10;54.00;;;;;;2289390;56;20941;-71
2022/02/25 09:32:45;;;;;;;6.50;1.77;;;10.20;53.90;;;;;;2289522;56;20933;-72
2022/02/25 09:35:12;;;;;;;4.45;1.55;;;10.20;54.00;;;;;;2523783;55;21466;-71
2022/02/25 09:37:38;;;;;;;7.30;1.33;;;10.20;54.10;;;;;;2316141;55;20960;-71
2022/02/25 09:40:07;;;;;;;4.78;1.55;;;10.30;54.30;;;;;;2523519;54;21458;-73
2022/02/25 09:42:35;;;;;;;5.75;1.35;;;10.40;53.70;;;;;;2289420;56;21456;-71
2022/02/25 09:45:02;;;;;;;5.00;1.33;;;10.50;54.10;;;;;;2371221;55;20954;-71
2022/02/25 09:47:29;;;;;;;6.20;1.50;;;10.70;54.10;;;;;;2274100;54;21128;-72
2022/02/25 09:49:56;;;;;;;5.65;1.30;;;10.80;54.20;;;;;;2290211;55;20941;-71
2022/02/25 09:52:22;;;;;;;3.85;1.00;;;11.00;54.40;;;;;;2289283;56;21036;-72
2022/02/25 09:54:49;;;;;;;4.87;1.33;;;11.30;54.00;;;;;;2381372;54;21120;-72
2022/02/25 09:57:16;;;;;;;4.90;0.95;;;11.40;54.10;;;;;;2346525;55;21469;-70
2022/02/25 09:59:44;;;;;;;5.45;1.20;;;11.50;53.80;;;;;;2335374;55;21552;-73
2022/02/25 10:02:10;;;;;;;4.65;1.20;;;11.60;53.40;;;;;;2289092;56;21008;-71
2022/02/25 10:04:36;;;;;;;4.62;1.08;;;11.70;53.40;;;;;;2401833;55;20937;-72
2022/02/25 10:07:24;;;;;;;6.53;1.42;;;11.70;52.80;;;;;;2379958;55;21386;-71
2022/02/25 10:09:52;;;;;;;4.90;1.50;;;11.80;52.00;;;;;;2288873;56;21036;-71
2022/02/25 10:12:19;;;;;;;5.97;1.52;;;11.90;52.80;;;;;;2289371;56;20949;-71
2022/02/25 10:14:49;;;;;;;6.30;1.12;;;12.00;54.10;;;;;;2288207;56;21056;-71
2022/02/25 10:17:24;;;;;;;3.97;0.93;;;12.40;55.20;;;;;;2291158;55;21006;-72
2022/02/25 10:19:52;;;;;;;6.30;1.60;;;12.70;55.60;;;;;;2302746;55;20960;-72
2022/02/25 10:22:24;;;;;;;4.82;1.48;;;13.10;55.50;;;;;;2289187;55;21566;-71
2022/02/25 10:25:08;;;;;;;5.78;1.20;;;13.50;55.00;;;;;;2406204;54;20957;-72
2022/02/25 10:27:55;;;;;;;3.60;1.12;;;13.90;53.80;;;;;;2285959;54;21084;-70
2022/02/25 10:30:22;;;;;;;7.05;1.87;;;14.10;53.70;;;;;;2361210;54;20995;-71
2022/02/25 10:32:53;;;;;;;14.27;2.53;;;14.30;52.80;;;;;;2288566;55;21025;-70
2022/02/25 10:35:33;;;;;;;7.45;1.60;;;14.40;51.30;;;;;;2462727;55;21445;-71
2022/02/25 10:38:19;;;;;;;4.53;1.30;;;14.40;49.50;;;;;;2348483;55;21064;-72
2022/02/25 10:40:50;;;;;;;3.67;1.30;;;14.40;50.60;;;;;;2523618;55;21722;-72
2022/02/25 10:43:26;;;;;;;4.43;1.27;;;14.30;50.00;;;;;;2294296;55;20987;-72
2022/02/25 10:49:33;;;;;;;5.45;1.67;;;14.00;48.90;;;;;;2384843;54;20992;-72
2022/02/25 10:51:59;;;;;;;5.68;1.52;;;13.80;49.60;;;;;;2289464;56;21409;-71
2022/02/25 10:54:40;;;;;;;6.50;1.80;;;13.70;49.60;;;;;;2289939;55;20982;-72
2022/02/25 10:57:11;;;;;;;6.45;1.40;;;13.60;49.00;;;;;;2387772;55;20972;-72
2022/02/25 10:59:43;;;;;;;5.62;1.48;;;13.50;49.00;;;;;;2288611;55;20945;-71
2022/02/25 11:02:24;;;;;;;7.50;1.75;;;13.40;48.70;;;;;;2523052;55;21462;-72
2022/02/25 11:05:08;;;;;;;5.65;2.20;;;13.20;48.10;;;;;;2309174;55;20984;-71
2022/02/25 11:07:36;;;;;;;7.45;2.15;;;13.10;48.40;;;;;;2429619;55;20969;-72
2022/02/25 11:10:04;;;;;;;6.62;1.90;;;13.00;48.70;;;;;;2289708;56;20996;-71
2022/02/25 11:12:30;;;;;;;10.07;5.15;;;12.90;48.90;;;;;;2295109;55;20917;-70
2022/02/25 11:14:57;;;;;;;5.10;2.00;;;12.80;49.00;;;;;;2289097;55;20957;-71
2022/02/25 11:17:23;;;;;;;4.93;1.55;;;12.70;49.20;;;;;;2501807;55;21001;-71
2022/02/25 11:19:50;;;;;;;8.50;3.45;;;12.70;49.00;;;;;;2338232;55;21520;-70
2022/02/25 11:22:18;;;;;;;4.53;1.23;;;12.70;49.20;;;;;;2319907;55;20988;-70
2022/02/25 11:25:03;;;;;;;5.30;2.53;;;12.60;49.10;;;;;;2287116;55;21034;-72
2022/02/25 11:27:32;;;;;;;7.72;3.30;;;12.70;49.40;;;;;;2429815;54;21562;-71
2022/02/25 11:30:13;;;;;;;7.75;2.00;;;12.80;50.20;;;;;;2288844;55;20968;-70
2022/02/25 11:32:42;;;;;;;6.05;2.20;;;12.80;49.70;;;;;;2333021;55;20981;-72
2022/02/25 11:35:20;;;;;;;8.00;1.90;;;12.90;49.80;;;;;;2289042;56;20905;-71
2022/02/25 11:37:49;;;;;;;4.20;1.30;;;13.00;49.90;;;;;;2401728;55;21040;-71
2022/02/25 11:40:16;;;;;;;6.60;1.83;;;13.20;51.00;;;;;;2288693;55;20941;-70
2022/02/25 11:42:48;;;;;;;4.93;1.25;;;13.40;51.60;;;;;;2523092;54;21032;-71
2022/02/25 11:45:22;;;;;;;6.80;1.50;;;13.60;52.10;;;;;;2289011;56;20944;-72
2022/02/25 11:47:50;;;;;;;4.15;1.30;;;14.00;52.00;;;;;;2313097;55;21046;-72
2022/02/25 11:50:33;;;;;;;3.80;0.80;;;14.30;51.80;;;;;;2289540;55;20965;-73
2022/02/25 11:53:01;;;;;;;6.15;1.85;;;14.50;50.50;;;;;;2301755;55;21827;-73
2022/02/25 11:55:34;;;;;;;4.68;1.10;;;14.70;51.20;;;;;;2510817;55;21462;-72
2022/02/25 11:58:37;;;;;;;3.55;0.80;;;14.90;51.50;;;;;;2290722;55;20977;-72
2022/02/25 12:01:08;;;;;;;4.60;0.77;;;15.10;50.50;;;;;;2287804;55;20972;-72
2022/02/25 12:03:35;;;;;;;3.53;0.80;;;15.20;50.90;;;;;;2444307;55;20944;-71
2022/02/25 12:06:02;;;;;;;4.18;1.00;;;15.30;50.10;;;;;;2289375;56;21768;-71
2022/02/25 12:08:37;;;;;;;4.62;1.02;;;15.40;49.50;;;;;;2308047;55;21548;-72
2022/02/25 12:11:33;;;;;;;6.50;0.90;;;15.30;47.90;;;;;;2331624;55;21482;-73
2022/02/25 12:14:00;;;;;;;4.40;1.12;;;15.20;47.00;;;;;;2311531;55;20970;-72
2022/02/25 12:16:28;;;;;;;3.65;0.77;;;15.20;48.00;;;;;;2288587;56;20971;-72
2022/02/25 12:19:05;;;;;;;6.00;0.80;;;15.10;47.80;;;;;;2364557;55;20944;-72
2022/02/25 12:21:42;;;;;;;3.78;1.00;;;15.10;47.20;;;;;;2287735;55;20957;-71
2022/02/25 12:24:12;;;;;;;4.55;1.00;;;15.00;46.70;;;;;;2406300;54;20944;-71
2022/02/25 12:26:41;;;;;;;4.18;0.93;;;14.90;46.60;;;;;;2288429;56;20972;-71
2022/02/25 12:29:17;;;;;;;3.55;1.08;;;14.80;46.50;;;;;;2376060;55;20972;-72
2022/02/25 12:31:47;;;;;;;5.28;1.20;;;14.60;45.60;;;;;;2291877;55;20972;-71
2022/02/25 12:34:25;;;;;;;4.57;1.10;;;14.40;45.70;;;;;;2398649;55;21571;-72
2022/02/25 12:36:52;;;;;;;4.03;0.98;;;14.30;45.40;;;;;;2287916;54;20933;-73
2022/02/25 12:39:33;;;;;;;4.78;0.90;;;14.10;45.90;;;;;;2472708;54;21402;-71
2022/02/25 12:42:02;;;;;;;3.95;0.80;;;14.00;45.50;;;;;;2288319;56;21880;-71
2022/02/25 12:44:30;;;;;;;5.85;1.10;;;13.80;45.60;;;;;;2351200;55;21535;-72
2022/02/25 12:47:05;;;;;;;3.30;0.82;;;13.70;45.60;;;;;;2291733;55;20972;-71
2022/02/25 12:49:32;;;;;;;5.55;1.15;;;13.60;45.40;;;;;;2360203;55;21054;-73
2022/02/25 12:52:01;;;;;;;6.37;1.23;;;13.50;45.50;;;;;;2275905;55;21775;-72
2022/02/25 12:54:28;;;;;;;4.35;1.30;;;13.40;45.40;;;;;;2344189;55;20961;-70
2022/02/25 12:56:59;;;;;;;4.03;1.00;;;13.30;45.60;;;;;;2501488;55;20937;-72
2022/02/25 12:59:42;;;;;;;4.18;0.88;;;13.20;45.60;;;;;;2491773;54;20997;-72
2022/02/25 13:02:09;;;;;;;6.65;1.55;;;13.10;45.20;;;;;;2289211;56;21497;-73
2022/02/25 13:04:45;;;;;;;3.83;1.00;;;13.00;45.70;;;;;;2449195;55;20961;-72
2022/02/25 13:07:13;;;;;;;2.72;0.98;;;12.90;45.30;;;;;;2292612;55;20932;-72
2022/02/25 13:09:39;;;;;;;3.53;0.95;;;12.80;45.50;;;;;;2421409;54;21465;-72
2022/02/25 13:12:08;;;;;;;5.95;1.20;;;12.70;45.40;;;;;;2292685;55;20968;-70
2022/02/25 13:14:42;;;;;;;4.72;1.30;;;12.60;45.40;;;;;;2329661;54;20928;-71
2022/02/25 13:17:23;;;;;;;3.05;1.00;;;12.50;45.00;;;;;;2289854;55;20940;-72
2022/02/25 13:19:54;;;;;;;5.15;1.17;;;12.30;45.10;;;;;;2336545;54;21048;-70
2022/02/25 13:22:42;;;;;;;4.22;1.40;;;12.30;45.30;;;;;;2293598;54;21030;-71
2022/02/25 13:25:10;;;;;;;4.53;1.60;;;12.20;44.90;;;;;;2280845;54;20971;-70
2022/02/25 13:27:46;;;;;;;7.03;1.60;;;12.10;45.50;;;;;;2324056;54;21029;-71